createdAt,value
2019-04-07T00:00:00.386Z,97391.58
2019-04-07T00:02:27.017Z,97392.50
2019-04-07T00:04:53.603Z,97394.25
2019-04-07T00:07:20.396Z,97391.47
2019-04-07T00:09:49.287Z,97391.39
2019-04-07T00:12:16.316Z,97406.50
2019-04-07T00:14:43.640Z,97402.53
2019-04-07T00:17:19.578Z,97403.74
2019-04-07T00:19:46.062Z,97407.31
2019-04-07T00:22:13.440Z,97413.31
2019-04-07T00:24:40.615Z,97406.30
2019-04-07T00:27:10.234Z,97408.34
2019-04-07T00:29:39.544Z,97405.75
2019-04-07T00:32:06.019Z,97406.84
2019-04-07T00:34:34.708Z,97407.70
2019-04-07T00:37:01.389Z,97402.05
2019-04-07T00:39:28.336Z,97404.87
2019-04-07T00:42:01.000Z,97410.67
2019-04-07T00:44:27.886Z,97409.24
2019-04-07T00:46:55.774Z,97410.98
2019-04-07T00:49:22.829Z,97419.12
2019-04-07T00:51:51.367Z,97415.31
2019-04-07T00:54:25.251Z,97420.19
2019-04-07T00:56:52.061Z,97418.49
2019-04-07T00:59:22.470Z,97409.14
2019-04-07T01:01:50.405Z,97414.20
2019-04-07T01:04:19.924Z,97416.81
2019-04-07T01:06:49.533Z,97419.47
2019-04-07T01:09:18.767Z,97423.45
2019-04-07T01:11:45.500Z,97417.48
2019-04-07T01:14:12.390Z,97417.63
2019-04-07T01:16:39.378Z,97419.54
2019-04-07T01:19:05.876Z,97415.92
2019-04-07T01:21:35.636Z,97421.80
2019-04-07T01:24:02.398Z,97424.92
2019-04-07T01:26:31.837Z,97430.52
2019-04-07T01:28:59.201Z,97428.86
2019-04-07T01:31:25.971Z,97431.92
2019-04-07T01:33:55.337Z,97434.94
2019-04-07T01:36:22.639Z,97435.08
2019-04-07T01:38:49.765Z,97437.63
2019-04-07T01:41:43.441Z,97428.10
2019-04-07T01:44:15.521Z,97427.30
2019-04-07T01:47:11.351Z,97429.19
2019-04-07T01:50:04.598Z,97432.66
2019-04-07T01:52:54.525Z,97424.64
2019-04-07T01:55:31.830Z,97423.42
2019-04-07T01:58:25.363Z,97422.98
2019-04-07T02:01:15.726Z,97416.64
2019-04-07T02:04:00.779Z,97419.52
2019-04-07T02:06:48.678Z,97414.07
2019-04-07T02:09:24.901Z,97414.07
2019-04-07T02:12:20.136Z,97412.19
2019-04-07T02:14:58.644Z,97403.91
2019-04-07T02:17:38.539Z,97412.23
2019-04-07T02:20:20.736Z,97413.88
2019-04-07T02:23:17.920Z,97418.16
2019-04-07T02:25:55.920Z,97423.02
2019-04-07T02:28:57.197Z,97419.95
2019-04-07T02:31:47.466Z,97422.30
2019-04-07T02:34:25.753Z,97431.09
2019-04-07T02:37:15.072Z,97427.34
2019-04-07T02:39:58.816Z,97422.57
2019-04-07T02:42:45.995Z,97428.02
2019-04-07T02:45:30.321Z,97422.12
2019-04-07T02:48:18.128Z,97422.74
2019-04-07T02:51:03.991Z,97426.30
2019-04-07T02:53:40.022Z,97440.31
2019-04-07T02:56:32.443Z,97434.48
2019-04-07T02:59:33.872Z,97430.13
2019-04-07T03:02:19.536Z,97440.03
2019-04-07T03:05:08.179Z,97438.63
2019-04-07T03:07:57.727Z,97449.09
2019-04-07T03:10:44.808Z,97440.98
2019-04-07T03:13:31.691Z,97450.27
2019-04-07T03:16:07.911Z,97450.09
2019-04-07T03:18:49.353Z,97453.66
2019-04-07T03:21:38.257Z,97447.70
2019-04-07T03:24:19.859Z,97446.36
2019-04-07T03:27:03.030Z,97446.77
2019-04-07T03:30:04.087Z,97449.45
2019-04-07T03:33:07.869Z,97449.78
2019-04-07T03:35:56.770Z,97457.30
2019-04-07T03:38:48.355Z,97449.86
2019-04-07T03:41:25.745Z,97458.20
2019-04-07T03:43:57.652Z,97456.08
2019-04-07T03:46:41.496Z,97454.58
2019-04-07T03:49:17.329Z,97454.47
2019-04-07T03:51:52.851Z,97457.23
2019-04-07T03:54:25.611Z,97458.36
2019-04-07T03:57:11.232Z,97461.30
2019-04-07T03:59:57.768Z,97453.73
2019-04-07T04:02:39.089Z,97449.97
2019-04-07T04:05:43.518Z,97448.25
2019-04-07T04:08:22.092Z,97452.53
2019-04-07T04:11:18.229Z,97448.73
2019-04-07T04:14:01.536Z,97442.13
2019-04-07T04:16:38.801Z,97447.56
2019-04-07T04:19:06.863Z,97453.30
2019-04-07T04:21:34.692Z,97454.41
2019-04-07T04:24:01.538Z,97453.36
2019-04-07T04:26:35.683Z,97451.17
2019-04-07T04:29:02.749Z,97454.26
2019-04-07T04:31:34.209Z,97460.44
2019-04-07T04:34:02.280Z,97458.62
2019-04-07T04:36:29.999Z,97455.08
2019-04-07T04:38:59.140Z,97451.21
2019-04-07T04:41:25.733Z,97449.09
2019-04-07T04:43:53.433Z,97452.72
2019-04-07T04:46:22.241Z,97455.73
2019-04-07T04:48:49.616Z,97453.38
2019-04-07T04:51:24.248Z,97460.09
2019-04-07T04:53:52.488Z,97466.52
2019-04-07T04:56:19.906Z,97464.28
2019-04-07T04:58:47.809Z,97474.67
2019-04-07T05:01:16.319Z,97475.12
2019-04-07T05:03:46.283Z,97473.45
2019-04-07T05:06:17.944Z,97481.64
2019-04-07T05:08:44.512Z,97480.34
2019-04-07T05:11:11.346Z,97484.66
2019-04-07T05:13:43.934Z,97487.20
2019-04-07T05:16:10.620Z,97488.91
2019-04-07T05:18:39.311Z,97484.81
2019-04-07T05:21:08.559Z,97485.26
2019-04-07T05:23:35.049Z,97493.52
2019-04-07T05:26:06.905Z,97492.59
2019-04-07T05:28:36.934Z,97492.45
2019-04-07T05:31:07.355Z,97489.17
2019-04-07T05:33:34.530Z,97491.56
2019-04-07T05:36:03.801Z,97496.09
2019-04-07T05:38:32.631Z,97495.83
2019-04-07T05:40:59.559Z,97498.15
2019-04-07T05:43:27.381Z,97504.14
2019-04-07T05:45:54.316Z,97510.01
2019-04-07T05:48:21.587Z,97505.03
2019-04-07T05:50:52.452Z,97510.27
2019-04-07T05:53:23.290Z,97509.47
2019-04-07T05:55:51.996Z,97511.18
2019-04-07T05:58:18.877Z,97508.92
2019-04-07T06:00:49.427Z,97510.09
2019-04-07T06:03:17.596Z,97517.45
2019-04-07T06:05:50.657Z,97516.18
2019-04-07T06:08:24.622Z,97510.32
2019-04-07T06:10:46.773Z,97510.39
2019-04-07T06:13:14.635Z,97511.86
2019-04-07T06:15:41.872Z,97517.02
2019-04-07T06:18:10.524Z,97516.39
2019-04-07T06:20:39.915Z,97512.83
2019-04-07T06:23:09.477Z,97511.34
2019-04-07T06:25:45.093Z,97521.39
2019-04-07T06:28:19.066Z,97511.56
2019-04-07T06:30:55.281Z,97512.02
2019-04-07T06:33:22.118Z,97515.19
2019-04-07T06:38:41.581Z,97506.48
2019-04-07T06:41:06.163Z,97508.10
2019-04-07T06:43:35.153Z,97505.48
2019-04-07T06:46:14.916Z,97511.39
2019-04-07T06:48:59.521Z,97508.22
2019-04-07T06:51:45.862Z,97510.89
2019-04-07T06:54:25.439Z,97515.17
2019-04-07T06:57:20.997Z,97513.69
2019-04-07T07:00:22.606Z,97518.38
2019-04-07T07:03:14.875Z,97512.28
2019-04-07T07:05:51.561Z,97513.25
2019-04-07T07:08:55.393Z,97509.88
2019-04-07T07:11:50.764Z,97507.25
2019-04-07T07:14:42.644Z,97511.89
2019-04-07T07:17:21.531Z,97505.38
2019-04-07T07:20:11.218Z,97513.17
2019-04-07T07:22:52.658Z,97512.16
2019-04-07T07:25:32.227Z,97514.91
2019-04-07T07:28:04.339Z,97508.61
2019-04-07T07:30:31.557Z,97511.14
2019-04-07T07:32:58.166Z,97507.75
2019-04-07T07:35:27.204Z,97509.55
2019-04-07T07:37:58.095Z,97510.11
2019-04-07T07:40:23.084Z,97506.58
2019-04-07T07:42:51.113Z,97508.55
2019-04-07T07:45:17.677Z,97511.19
2019-04-07T07:47:44.879Z,97513.59
2019-04-07T07:50:12.108Z,97513.81
2019-04-07T07:52:39.826Z,97510.67
2019-04-07T07:55:06.584Z,97509.92
2019-04-07T07:57:33.811Z,97514.86
2019-04-07T08:00:05.095Z,97512.75
2019-04-07T08:02:31.176Z,97518.43
2019-04-07T08:04:59.273Z,97512.68
2019-04-07T08:07:25.991Z,97511.78
2019-04-07T08:09:54.416Z,97515.57
2019-04-07T08:12:21.616Z,97514.22
2019-04-07T08:14:51.781Z,97511.50
2019-04-07T08:17:17.303Z,97516.11
2019-04-07T08:19:45.285Z,97517.12
2019-04-07T08:22:12.274Z,97513.65
2019-04-07T08:24:39.240Z,97528.53
2019-04-07T08:27:06.363Z,97511.52
2019-04-07T08:29:37.159Z,97517.13
2019-04-07T08:32:06.603Z,97519.05
2019-04-07T08:34:33.136Z,97515.25
2019-04-07T08:36:59.622Z,97522.52
2019-04-07T08:39:31.472Z,97519.56
2019-04-07T08:41:54.947Z,97516.61
2019-04-07T08:44:21.628Z,97515.38
2019-04-07T08:46:48.550Z,97517.76
2019-04-07T08:49:15.186Z,97517.76
2019-04-07T08:51:42.551Z,97516.80
2019-04-07T08:54:09.922Z,97517.56
2019-04-07T08:56:37.618Z,97524.24
2019-04-07T08:59:08.464Z,97524.51
2019-04-07T09:01:36.130Z,97525.20
2019-04-07T09:04:03.035Z,97520.72
2019-04-07T09:06:38.521Z,97509.13
2019-04-07T09:09:07.938Z,97509.13
2019-04-07T09:11:34.879Z,97513.81
2019-04-07T09:14:04.187Z,97517.18
2019-04-07T09:16:39.305Z,97517.91
2019-04-07T09:19:14.980Z,97512.02
2019-04-07T09:21:50.251Z,97517.34
2019-04-07T09:24:33.524Z,97518.37
2019-04-07T09:27:09.121Z,97514.78
2019-04-07T09:30:02.598Z,97514.23
2019-04-07T09:32:46.409Z,97508.34
2019-04-07T09:35:42.493Z,97502.84
2019-04-07T09:38:27.385Z,97509.11
2019-04-07T09:41:17.192Z,97507.33
2019-04-07T09:44:12.516Z,97511.45
2019-04-07T09:46:58.581Z,97502.03
2019-04-07T09:50:00.436Z,97503.91
2019-04-07T09:52:34.881Z,97505.22
2019-04-07T09:55:20.054Z,97508.34
2019-04-07T09:57:59.226Z,97501.03
2019-04-07T10:00:57.189Z,97502.92
2019-04-07T10:03:42.053Z,97502.41
2019-04-07T10:06:22.255Z,97508.94
2019-04-07T10:08:57.775Z,97497.93
2019-04-07T10:11:39.392Z,97495.42
2019-04-07T10:14:24.434Z,97492.19
2019-04-07T10:16:59.877Z,97496.68
2019-04-07T10:20:05.130Z,97499.54
2019-04-07T10:22:51.573Z,97503.45
2019-04-07T10:25:50.728Z,97495.10
2019-04-07T10:28:31.167Z,97502.64
2019-04-07T10:31:28.359Z,97499.09
2019-04-07T10:34:24.910Z,97505.07
2019-04-07T10:37:22.615Z,97494.67
2019-04-07T10:40:19.725Z,97495.64
2019-04-07T10:43:01.494Z,97493.81
2019-04-07T10:45:46.023Z,97491.69
2019-04-07T10:48:47.899Z,97488.28
2019-04-07T10:51:34.312Z,97489.54
2019-04-07T10:54:23.436Z,97486.94
2019-04-07T10:57:17.799Z,97480.39
2019-04-07T10:59:51.718Z,97475.50
2019-04-07T11:02:39.500Z,97472.59
2019-04-07T11:05:26.137Z,97480.05
2019-04-07T11:08:16.547Z,97474.44
2019-04-07T11:11:08.806Z,97480.02
2019-04-07T11:13:53.513Z,97474.95
2019-04-07T11:16:48.834Z,97480.74
2019-04-07T11:19:36.286Z,97474.97
2019-04-07T11:22:17.728Z,97468.88
2019-04-07T11:25:03.614Z,97470.09
2019-04-07T11:27:55.816Z,97472.94
2019-04-07T11:30:40.915Z,97471.73
2019-04-07T11:33:15.027Z,97470.70
2019-04-07T11:35:51.039Z,97467.80
2019-04-07T11:38:32.635Z,97471.72
2019-04-07T11:41:33.787Z,97474.97
2019-04-07T11:44:08.881Z,97470.71
2019-04-07T11:47:10.944Z,97469.02
2019-04-07T11:49:46.204Z,97467.69
2019-04-07T11:52:33.311Z,97464.79
2019-04-07T11:55:10.155Z,97469.13
2019-04-07T11:57:47.207Z,97457.64
2019-04-07T12:00:39.805Z,97460.13
2019-04-07T12:03:26.981Z,97460.09
2019-04-07T12:06:14.286Z,97457.91
2019-04-07T12:08:57.100Z,97465.15
2019-04-07T12:11:40.909Z,97460.36
2019-04-07T12:14:20.299Z,97468.69
2019-04-07T12:17:05.012Z,97463.16
2019-04-07T12:19:56.903Z,97465.39
2019-04-07T12:23:01.591Z,97458.41
2019-04-07T12:25:36.288Z,97452.48
2019-04-07T12:28:17.868Z,97455.52
2019-04-07T12:31:17.205Z,97456.03
2019-04-07T12:34:16.828Z,97457.84
2019-04-07T12:37:10.332Z,97452.80
2019-04-07T12:39:56.544Z,97458.93
2019-04-07T12:42:45.656Z,97457.95
2019-04-07T12:45:38.478Z,97453.39
2019-04-07T12:48:34.943Z,97458.22
2019-04-07T12:51:12.247Z,97463.20
2019-04-07T12:54:01.894Z,97457.78
2019-04-07T12:56:36.121Z,97455.08
2019-04-07T12:59:10.486Z,97455.44
2019-04-07T13:02:12.431Z,97453.94
2019-04-07T13:05:02.031Z,97439.50
2019-04-07T13:07:41.655Z,97448.37
2019-04-07T13:10:19.442Z,97455.19
2019-04-07T13:13:15.944Z,97454.43
2019-04-07T13:16:05.620Z,97447.08
2019-04-07T13:18:55.544Z,97447.73
2019-04-07T13:21:32.296Z,97447.58
2019-04-07T13:24:30.188Z,97447.45
2019-04-07T13:27:20.236Z,97443.42
2019-04-07T13:30:01.288Z,97434.97
2019-04-07T13:32:50.418Z,97430.18
2019-04-07T13:35:35.322Z,97429.73
2019-04-07T13:38:20.796Z,97428.16
2019-04-07T13:41:05.642Z,97425.23
2019-04-07T13:43:56.046Z,97426.06
2019-04-07T13:46:53.288Z,97421.09
2019-04-07T13:49:39.536Z,97425.09
2019-04-07T13:52:35.503Z,97419.08
2019-04-07T13:55:25.562Z,97409.21
2019-04-07T13:58:15.059Z,97422.00
2019-04-07T14:00:52.042Z,97426.56
2019-04-07T14:03:31.265Z,97430.42
2019-04-07T14:06:31.306Z,97426.15
2019-04-07T14:09:06.747Z,97421.96
2019-04-07T14:12:05.463Z,97428.49
2019-04-07T14:14:47.209Z,97436.25
2019-04-07T14:17:24.828Z,97437.83
2019-04-07T14:20:26.810Z,97429.65
2019-04-07T14:23:12.155Z,97429.09
2019-04-07T14:25:48.260Z,97430.70
2019-04-07T14:28:34.624Z,97438.72
2019-04-07T14:31:19.294Z,97438.72
2019-04-07T14:34:05.751Z,97430.45
2019-04-07T14:36:51.218Z,97425.55
2019-04-07T14:39:37.821Z,97427.09
2019-04-07T14:42:34.117Z,97431.51
2019-04-07T14:45:24.973Z,97431.84
2019-04-07T14:48:17.451Z,97431.77
2019-04-07T14:51:26.178Z,97440.53
2019-04-07T14:54:09.927Z,97438.30
2019-04-07T14:56:59.720Z,97430.83
2019-04-07T14:59:41.656Z,97433.86
2019-04-07T15:02:08.369Z,97439.85
2019-04-07T15:05:04.152Z,97439.86
2019-04-07T15:08:04.398Z,97439.86
2019-04-07T15:10:36.201Z,97433.80
2019-04-07T15:13:06.467Z,97426.73
2019-04-07T15:15:36.847Z,97426.73
2019-04-07T15:18:25.170Z,97439.05
2019-04-07T15:20:52.839Z,97441.09
2019-04-07T15:23:20.739Z,97446.19
2019-04-07T15:25:51.588Z,97435.64
2019-04-07T15:28:21.536Z,97439.03
2019-04-07T15:30:49.586Z,97442.77
2019-04-07T15:33:17.776Z,97445.59
2019-04-07T15:35:47.258Z,97445.11
2019-04-07T15:38:13.129Z,97442.44
2019-04-07T15:40:39.763Z,97442.44
2019-04-07T15:43:09.989Z,97450.81
2019-04-07T15:45:36.564Z,97448.86
2019-04-07T15:48:08.358Z,97446.35
2019-04-07T15:50:35.796Z,97448.83
2019-04-07T15:53:06.119Z,97449.12
2019-04-07T15:55:45.478Z,97452.45
2019-04-07T15:58:04.626Z,97457.90
2019-04-07T16:00:38.933Z,97463.87
2019-04-07T16:03:05.666Z,97461.42
2019-04-07T16:05:38.866Z,97465.46
2019-04-07T16:08:02.186Z,97471.46
2019-04-07T16:10:36.041Z,97471.03
2019-04-07T16:13:04.702Z,97469.36
2019-04-07T16:15:32.547Z,97464.16
2019-04-07T16:17:59.076Z,97469.07
2019-04-07T16:20:31.601Z,97464.69
2019-04-07T16:22:58.441Z,97469.55
2019-04-07T16:25:27.506Z,97476.38
2019-04-07T16:27:54.569Z,97473.42
2019-04-07T16:30:25.961Z,97479.15
2019-04-07T16:32:59.705Z,97478.44
2019-04-07T16:35:26.304Z,97488.16
2019-04-07T16:37:55.400Z,97485.87
2019-04-07T16:40:22.190Z,97485.98
2019-04-07T16:43:04.821Z,97487.89
2019-04-07T16:45:19.295Z,97480.31
2019-04-07T16:47:46.038Z,97495.88
2019-04-07T16:50:13.317Z,97496.83
2019-04-07T16:52:40.205Z,97492.09
2019-04-07T16:55:28.666Z,97501.17
2019-04-07T17:00:39.934Z,97504.31
2019-04-07T17:03:10.024Z,97500.42
2019-04-07T17:05:37.534Z,97497.89
2019-04-07T17:08:05.512Z,97496.94
2019-04-07T17:10:35.425Z,97496.56
2019-04-07T17:13:17.854Z,97502.08
2019-04-07T17:15:39.511Z,97497.42
2019-04-07T17:18:09.827Z,97501.60
2019-04-07T17:20:38.195Z,97504.25
2019-04-07T17:23:08.817Z,97504.08
2019-04-07T17:25:37.578Z,97499.32
2019-04-07T17:28:05.325Z,97509.54
2019-04-07T17:30:33.889Z,97502.91
2019-04-07T17:33:11.309Z,97508.79
2019-04-07T17:35:54.497Z,97510.11
2019-04-07T17:38:29.135Z,97504.52
2019-04-07T17:40:58.367Z,97511.72
2019-04-07T17:43:49.409Z,97515.38
2019-04-07T17:46:27.511Z,97512.34
2019-04-07T17:49:11.083Z,97516.51
2019-04-07T17:52:31.638Z,97520.01
2019-04-07T17:55:31.588Z,97520.30
2019-04-07T17:58:17.303Z,97523.65
2019-04-07T18:01:15.892Z,97529.66
2019-04-07T18:04:13.998Z,97530.19
2019-04-07T18:07:06.010Z,97536.53
2019-04-07T18:09:57.303Z,97533.53
2019-04-07T18:13:08.958Z,97530.66
2019-04-07T18:19:50.530Z,97543.58
2019-04-07T18:22:55.487Z,97546.41
2019-04-07T18:25:41.396Z,97549.48
2019-04-07T18:28:19.077Z,97557.42
2019-04-07T18:30:54.244Z,97562.71
2019-04-07T18:33:45.497Z,97560.63
2019-04-07T18:36:35.365Z,97568.34
2019-04-07T18:39:39.739Z,97573.81
2019-04-07T18:42:46.681Z,97579.95
2019-04-07T18:45:23.353Z,97577.45
2019-04-07T18:48:16.753Z,97587.19
2019-04-07T18:51:05.068Z,97592.42
2019-04-07T18:53:50.239Z,97590.63
2019-04-07T18:56:49.554Z,97595.27
2019-04-07T18:59:29.180Z,97598.94
2019-04-07T19:02:16.258Z,97595.92
2019-04-07T19:05:00.189Z,97601.16
2019-04-07T19:07:48.533Z,97604.38
2019-04-07T19:10:25.569Z,97603.91
2019-04-07T19:13:17.092Z,97610.61
2019-04-07T19:16:00.017Z,97614.58
2019-04-07T19:18:42.155Z,97617.41
2019-04-07T19:21:27.964Z,97611.73
2019-04-07T19:24:30.076Z,97606.59
2019-04-07T19:27:18.059Z,97611.59
2019-04-07T19:30:13.906Z,97618.05
2019-04-07T19:33:02.473Z,97620.79
2019-04-07T19:35:48.678Z,97615.77
2019-04-07T19:38:29.520Z,97609.21
2019-04-07T19:41:34.163Z,97615.62
2019-04-07T19:44:35.573Z,97616.64
2019-04-07T19:47:14.093Z,97614.47
2019-04-07T19:50:15.104Z,97615.61
2019-04-07T19:52:49.867Z,97607.77
2019-04-07T19:55:39.024Z,97611.26
2019-04-07T19:58:17.703Z,97605.73
2019-04-07T20:01:14.903Z,97614.92
2019-04-07T20:04:02.747Z,97611.12
2019-04-07T20:06:57.244Z,97612.23
2019-04-07T20:09:44.435Z,97610.12
2019-04-07T20:12:35.048Z,97617.47
2019-04-07T20:15:12.958Z,97613.34
2019-04-07T20:18:04.809Z,97619.41
2019-04-07T20:20:43.173Z,97616.98
2019-04-07T20:23:30.270Z,97613.19
2019-04-07T20:26:20.750Z,97612.93
2019-04-07T20:28:54.538Z,97615.16
2019-04-07T20:31:44.977Z,97618.41
2019-04-07T20:34:23.159Z,97613.77
2019-04-07T20:37:05.419Z,97613.44
2019-04-07T20:40:00.169Z,97613.09
2019-04-07T20:42:46.369Z,97614.11
2019-04-07T20:45:29.920Z,97615.42
2019-04-07T20:48:19.532Z,97607.67
2019-04-07T20:50:54.723Z,97612.14
2019-04-07T20:53:43.458Z,97611.64
2019-04-07T20:56:47.083Z,97612.73
2019-04-07T20:59:33.296Z,97614.33
2019-04-07T21:02:27.149Z,97612.81
2019-04-07T21:05:16.048Z,97615.41
2019-04-07T21:08:06.297Z,97625.22
2019-04-07T21:10:42.152Z,97614.82
2019-04-07T21:13:28.935Z,97618.41
2019-04-07T21:16:17.667Z,97616.42
2019-04-07T21:18:53.172Z,97616.42
2019-04-07T21:21:34.383Z,97616.96
2019-04-07T21:24:27.271Z,97615.77
2019-04-07T21:27:18.552Z,97618.26
2019-04-07T21:30:08.650Z,97614.19
2019-04-07T21:32:59.130Z,97617.41
2019-04-07T21:35:50.443Z,97616.70
2019-04-07T21:38:35.073Z,97613.67
2019-04-07T21:41:17.050Z,97617.23
2019-04-07T21:43:59.737Z,97613.14
2019-04-07T21:46:42.902Z,97620.73
2019-04-07T21:49:37.169Z,97619.20
2019-04-07T21:52:09.387Z,97616.83
2019-04-07T21:54:55.654Z,97623.20
2019-04-07T21:57:34.298Z,97626.02
2019-04-07T22:00:32.925Z,97626.94
2019-04-07T22:03:37.494Z,97623.84
2019-04-07T22:06:14.534Z,97620.89
2019-04-07T22:08:46.798Z,97623.70
2019-04-07T22:11:13.834Z,97622.66
2019-04-07T22:13:40.751Z,97627.08
2019-04-07T22:16:08.015Z,97622.27
2019-04-07T22:18:37.506Z,97622.84
2019-04-07T22:21:03.435Z,97620.20
2019-04-07T22:23:31.755Z,97624.05
2019-04-07T22:25:59.779Z,97621.42
2019-04-07T22:28:28.402Z,97622.31
2019-04-07T22:30:55.503Z,97617.33
2019-04-07T22:33:25.138Z,97623.37
2019-04-07T22:35:51.317Z,97622.16
2019-04-07T22:38:22.035Z,97622.00
2019-04-07T22:40:48.108Z,97629.81
2019-04-07T22:43:17.060Z,97623.55
2019-04-07T22:45:53.164Z,97629.11
2019-04-07T22:48:12.187Z,97626.67
2019-04-07T22:50:39.808Z,97631.16
2019-04-07T22:53:07.310Z,97624.18
2019-04-07T22:55:36.042Z,97622.70
2019-04-07T22:58:03.326Z,97623.46
2019-04-07T23:00:33.917Z,97621.33
2019-04-07T23:03:01.948Z,97629.47
2019-04-07T23:05:29.727Z,97630.49
2019-04-07T23:07:56.437Z,97633.25
2019-04-07T23:10:23.497Z,97634.27
2019-04-07T23:12:50.931Z,97637.02
2019-04-07T23:15:18.719Z,97628.97
2019-04-07T23:17:45.354Z,97632.73
2019-04-07T23:20:12.977Z,97634.12
2019-04-07T23:22:40.311Z,97633.36
2019-04-07T23:25:07.814Z,97631.85
2019-04-07T23:27:34.520Z,97636.45
2019-04-07T23:30:03.932Z,97636.00
2019-04-07T23:32:31.179Z,97638.48
2019-04-07T23:34:57.786Z,97643.86
2019-04-07T23:37:25.247Z,97631.77
2019-04-07T23:39:51.842Z,97635.98
2019-04-07T23:42:18.899Z,97635.86
2019-04-07T23:44:45.750Z,97634.34
2019-04-07T23:47:13.163Z,97635.92
2019-04-07T23:49:40.495Z,97629.30
2019-04-07T23:52:07.608Z,97633.69
2019-04-07T23:54:35.234Z,97631.98
2019-04-07T23:57:03.859Z,97632.84
2019-04-07T23:59:32.570Z,97628.20
